createdAt,value
2017-01-17T00:00:07.308Z,1025.96
2017-01-17T00:01:12.507Z,1025.96
2017-01-17T00:02:18.679Z,1025.96
2017-01-17T00:03:21.912Z,1025.92
2017-01-17T00:04:27.101Z,1025.89
2017-01-17T00:05:33.274Z,1025.88
2017-01-17T00:06:38.518Z,1025.92
2017-01-17T00:07:40.753Z,1025.9
2017-01-17T00:08:46.922Z,1025.88
2017-01-17T00:09:53.092Z,1025.94
2017-01-17T00:10:59.256Z,1025.92
2017-01-17T00:12:05.424Z,1025.87
2017-01-17T00:14:16.746Z,1025.93
2017-01-17T00:15:21.939Z,1025.94
2017-01-17T00:16:28.100Z,1025.95
2017-01-17T00:17:32.998Z,1025.98
2017-01-17T00:18:38.189Z,1025.92
2017-01-17T00:19:42.420Z,1025.96
2017-01-17T00:20:47.582Z,1025.99
2017-01-17T00:21:53.513Z,1025.93
2017-01-17T00:22:58.665Z,1025.93
2017-01-17T00:24:03.839Z,1025.93
2017-01-17T00:25:09.036Z,1025.93
2017-01-17T00:26:14.195Z,1025.96
2017-01-17T00:27:19.386Z,1025.95
2017-01-17T00:28:25.545Z,1025.94
2017-01-17T00:29:31.725Z,1025.96
2017-01-17T00:30:37.888Z,1025.98
2017-01-17T00:31:44.130Z,1026.01
2017-01-17T00:32:50.298Z,1025.97
2017-01-17T00:33:56.471Z,1025.99
2017-01-17T00:35:02.630Z,1026.02
2017-01-17T00:36:08.806Z,1026
2017-01-17T00:37:14.969Z,1026.01
2017-01-17T00:38:20.477Z,1025.99
2017-01-17T00:39:26.637Z,1026.02
2017-01-17T00:40:31.852Z,1026.02
2017-01-17T00:41:38.024Z,1026.06
2017-01-17T00:42:44.195Z,1026.04
2017-01-17T00:43:50.351Z,1026.04
2017-01-17T00:44:56.552Z,1026.05
2017-01-17T00:46:01.719Z,1026.08
2017-01-17T00:47:07.874Z,1026.09
2017-01-17T00:48:13.043Z,1026.11
2017-01-17T00:49:18.208Z,1026.16
2017-01-17T00:50:24.474Z,1026.16
2017-01-17T00:51:30.646Z,1026.19
2017-01-17T00:52:35.817Z,1026.24
2017-01-17T00:53:41.971Z,1026.24
2017-01-17T00:54:48.150Z,1026.28
2017-01-17T00:55:53.333Z,1026.29
2017-01-17T00:56:58.654Z,1026.31
2017-01-17T00:58:03.855Z,1026.33
2017-01-17T00:59:10.090Z,1026.35
2017-01-17T01:00:16.286Z,1026.37
2017-01-17T01:01:22.452Z,1026.38
2017-01-17T01:02:28.613Z,1026.39
2017-01-17T01:03:34.765Z,1026.35
2017-01-17T01:04:40.957Z,1026.37
2017-01-17T01:05:47.118Z,1026.41
2017-01-17T01:06:52.309Z,1026.42
2017-01-17T01:07:58.546Z,1026.41
2017-01-17T01:09:04.666Z,1026.4
2017-01-17T01:10:10.828Z,1026.41
2017-01-17T01:11:16.016Z,1026.43
2017-01-17T01:12:21.201Z,1026.43
2017-01-17T01:13:25.437Z,1026.36
2017-01-17T01:14:28.780Z,1026.44
2017-01-17T01:15:32.979Z,1026.44
2017-01-17T01:16:38.175Z,1026.43
2017-01-17T01:17:43.442Z,1026.43
2017-01-17T01:18:48.630Z,1026.44
2017-01-17T01:19:53.821Z,1026.45
2017-01-17T01:20:59.989Z,1026.41
2017-01-17T01:22:05.161Z,1026.41
2017-01-17T01:23:11.315Z,1026.41
2017-01-17T01:24:17.472Z,1026.5
2017-01-17T01:25:22.672Z,1026.48
2017-01-17T01:26:27.833Z,1026.46
2017-01-17T01:27:32.032Z,1026.41
2017-01-17T01:28:38.193Z,1026.48
2017-01-17T01:29:42.392Z,1026.46
2017-01-17T01:30:48.549Z,1026.45
2017-01-17T01:31:54.710Z,1026.5
2017-01-17T01:33:00.876Z,1026.5
2017-01-17T01:34:05.078Z,1026.44
2017-01-17T01:35:09.385Z,1026.47
2017-01-17T01:36:14.642Z,1026.44
2017-01-17T01:37:20.804Z,1026.48
2017-01-17T01:38:26.975Z,1026.49
2017-01-17T01:39:32.188Z,1026.52
2017-01-17T01:40:38.336Z,1026.53
2017-01-17T01:41:41.574Z,1026.58
2017-01-17T01:42:47.729Z,1026.59
2017-01-17T01:43:52.941Z,1026.65
2017-01-17T01:44:57.154Z,1026.63
2017-01-17T01:46:03.347Z,1026.67
2017-01-17T01:47:08.519Z,1026.7
2017-01-17T01:48:14.687Z,1026.67
2017-01-17T01:49:20.852Z,1026.69
2017-01-17T01:50:27.025Z,1026.71
2017-01-17T01:51:33.184Z,1026.75
2017-01-17T01:52:39.353Z,1026.75
2017-01-17T01:53:44.560Z,1026.73
2017-01-17T01:54:49.836Z,1026.81
2017-01-17T01:55:54.006Z,1026.78
2017-01-17T01:57:00.164Z,1026.81
2017-01-17T01:58:05.353Z,1026.82
2017-01-17T01:59:10.549Z,1026.84
2017-01-17T02:00:15.752Z,1026.8
2017-01-17T02:01:20.945Z,1026.82
2017-01-17T02:02:26.143Z,1026.87
2017-01-17T02:03:31.305Z,1026.88
2017-01-17T02:04:36.504Z,1026.87
2017-01-17T02:05:40.733Z,1026.85
2017-01-17T02:06:46.355Z,1026.89
2017-01-17T02:07:52.512Z,1026.85
2017-01-17T02:08:56.751Z,1026.88
2017-01-17T02:10:02.911Z,1026.87
2017-01-17T02:11:08.180Z,1026.87
2017-01-17T02:12:11.433Z,1026.9
2017-01-17T02:13:16.718Z,1026.91
2017-01-17T02:14:22.892Z,1026.9
2017-01-17T02:15:28.093Z,1026.93
2017-01-17T02:16:33.289Z,1026.96
2017-01-17T02:17:39.453Z,1026.94
2017-01-17T02:18:44.649Z,1026.95
2017-01-17T02:19:48.875Z,1026.99
2017-01-17T02:20:54.117Z,1026.98
2017-01-17T02:22:00.277Z,1026.95
2017-01-17T02:23:06.525Z,1026.99
2017-01-17T02:24:12.688Z,1026.98
2017-01-17T02:25:18.850Z,1026.98
2017-01-17T02:26:24.061Z,1027.01
2017-01-17T02:27:30.183Z,1026.97
2017-01-17T02:28:36.456Z,1027.01
2017-01-17T02:29:41.649Z,1027.01
2017-01-17T02:30:45.856Z,1027.01
2017-01-17T02:31:52.018Z,1027.04
2017-01-17T02:32:55.247Z,1026.99
2017-01-17T02:34:01.411Z,1027
2017-01-17T02:35:05.741Z,1027.02
2017-01-17T02:36:11.906Z,1027.04
2017-01-17T02:37:15.165Z,1027.04
2017-01-17T02:38:20.356Z,1027.07
2017-01-17T02:39:25.553Z,1027.08
2017-01-17T02:40:31.713Z,1027.07
2017-01-17T02:41:35.951Z,1027.06
2017-01-17T02:42:42.108Z,1027.07
2017-01-17T02:43:48.269Z,1027.02
2017-01-17T02:44:52.468Z,1027
2017-01-17T02:45:57.655Z,1027.03
2017-01-17T02:47:02.852Z,1027.04
2017-01-17T02:48:08.046Z,1027.02
2017-01-17T02:49:11.276Z,1027.09
2017-01-17T02:50:17.597Z,1027.11
2017-01-17T02:51:22.787Z,1027.11
2017-01-17T02:52:28.953Z,1027.11
2017-01-17T02:53:34.200Z,1027.09
2017-01-17T02:54:39.376Z,1027.15
2017-01-17T02:55:43.901Z,1027.15
2017-01-17T02:56:50.064Z,1027.18
2017-01-17T02:57:54.288Z,1027.16
2017-01-17T02:58:59.602Z,1027.17
2017-01-17T03:00:05.759Z,1027.2
2017-01-17T03:01:11.969Z,1027.19
2017-01-17T03:02:18.094Z,1027.17
2017-01-17T03:03:23.286Z,1027.21
2017-01-17T03:04:28.490Z,1027.2
2017-01-17T03:05:33.736Z,1027.26
2017-01-17T03:06:36.990Z,1027.21
2017-01-17T03:07:40.252Z,1027.24
2017-01-17T03:08:45.423Z,1027.21
2017-01-17T03:09:51.588Z,1027.19
2017-01-17T03:10:57.751Z,1027.19
2017-01-17T03:12:04.021Z,1027.2
2017-01-17T03:13:08.933Z,1027.18
2017-01-17T03:14:14.094Z,1027.2
2017-01-17T03:15:18.303Z,1027.2
2017-01-17T03:16:24.465Z,1027.25
2017-01-17T03:17:30.639Z,1027.21
2017-01-17T03:18:35.831Z,1027.25
2017-01-17T03:19:41.023Z,1027.26
2017-01-17T03:20:47.190Z,1027.25
2017-01-17T03:21:51.170Z,1027.26
2017-01-17T03:22:56.433Z,1027.3
2017-01-17T03:24:02.700Z,1027.29
2017-01-17T03:25:08.478Z,1027.26
2017-01-17T03:26:14.639Z,1027.28
2017-01-17T03:27:19.834Z,1027.26
2017-01-17T03:28:24.082Z,1027.25
2017-01-17T03:29:30.197Z,1027.25
2017-01-17T03:30:35.412Z,1027.28
2017-01-17T03:31:41.575Z,1027.31
2017-01-17T03:32:46.765Z,1027.38
2017-01-17T03:33:52.035Z,1027.34
2017-01-17T03:34:55.292Z,1027.33
2017-01-17T03:36:00.478Z,1027.32
2017-01-17T03:37:05.807Z,1027.3
2017-01-17T03:38:10.940Z,1027.29
2017-01-17T03:39:16.150Z,1027.32
2017-01-17T03:40:22.314Z,1027.28
2017-01-17T03:41:28.474Z,1027.23
2017-01-17T03:42:33.664Z,1027.21
2017-01-17T03:43:38.914Z,1027.16
2017-01-17T03:44:44.121Z,1027.14
2017-01-17T03:45:47.380Z,1027.12
2017-01-17T03:46:52.571Z,1027.14
2017-01-17T03:47:58.743Z,1027.14
2017-01-17T03:49:04.900Z,1027.15
2017-01-17T03:50:11.069Z,1027.15
2017-01-17T03:51:16.228Z,1027.14
2017-01-17T03:52:22.390Z,1027.19
2017-01-17T03:53:27.591Z,1027.14
2017-01-17T03:54:31.789Z,1027.18
2017-01-17T03:55:37.957Z,1027.13
2017-01-17T03:56:43.163Z,1027.12
2017-01-17T03:57:49.340Z,1027.14
2017-01-17T03:58:55.508Z,1027.14
2017-01-17T04:00:01.664Z,1027.15
2017-01-17T04:01:07.824Z,1027.14
2017-01-17T04:02:13.029Z,1027.15
2017-01-17T04:03:18.220Z,1027.14
2017-01-17T04:04:21.458Z,1027.15
2017-01-17T04:05:26.628Z,1027.1
2017-01-17T04:06:31.787Z,1027.12
2017-01-17T04:07:37.947Z,1027.11
2017-01-17T04:08:43.147Z,1027.1
2017-01-17T04:09:47.422Z,1027.07
2017-01-17T04:10:51.632Z,1027.07
2017-01-17T04:11:56.825Z,1027.08
2017-01-17T04:13:02.979Z,1027.11
2017-01-17T04:14:08.168Z,1027.01
2017-01-17T04:15:14.343Z,1027.03
2017-01-17T04:16:18.717Z,1027.02
2017-01-17T04:17:24.872Z,1027.04
2017-01-17T04:18:30.106Z,1026.99
2017-01-17T04:19:36.224Z,1027.02
2017-01-17T04:20:41.466Z,1026.98
2017-01-17T04:21:46.690Z,1026.97
2017-01-17T04:22:52.846Z,1026.97
2017-01-17T04:23:58.008Z,1026.97
2017-01-17T04:25:02.317Z,1026.98
2017-01-17T04:26:08.471Z,1026.98
2017-01-17T04:27:13.682Z,1027
2017-01-17T04:28:19.842Z,1026.99
2017-01-17T04:29:26.018Z,1027.03
2017-01-17T04:30:31.178Z,1027.01
2017-01-17T04:31:36.462Z,1027.03
2017-01-17T04:32:42.570Z,1027
2017-01-17T04:33:46.803Z,1027.05
2017-01-17T04:34:51.033Z,1027.07
2017-01-17T04:35:57.212Z,1027.07
2017-01-17T04:37:02.444Z,1027.08
2017-01-17T04:38:07.613Z,1027.09
2017-01-17T04:39:13.805Z,1027.1
2017-01-17T04:40:19.931Z,1027.1
2017-01-17T04:41:25.123Z,1027.09
2017-01-17T04:42:31.294Z,1027.15
2017-01-17T04:43:37.448Z,1027.12
2017-01-17T04:44:42.644Z,1027.17
2017-01-17T04:45:48.802Z,1027.22
2017-01-17T04:46:55.049Z,1027.19
2017-01-17T04:48:01.197Z,1027.18
2017-01-17T04:49:06.397Z,1027.18
2017-01-17T04:50:11.584Z,1027.21
2017-01-17T04:51:17.753Z,1027.22
2017-01-17T04:52:22.977Z,1027.22
2017-01-17T04:53:27.973Z,1027.22
2017-01-17T04:54:33.163Z,1027.18
2017-01-17T04:55:38.374Z,1027.18
2017-01-17T04:56:44.539Z,1027.17
2017-01-17T04:57:49.726Z,1027.23
2017-01-17T04:58:54.923Z,1027.2
2017-01-17T05:00:00.150Z,1027.16
2017-01-17T05:01:06.310Z,1027.2
2017-01-17T05:02:11.500Z,1027.18
2017-01-17T05:03:15.701Z,1027.23
2017-01-17T05:04:19.907Z,1027.21
2017-01-17T05:05:26.075Z,1027.22
2017-01-17T05:06:31.264Z,1027.23
2017-01-17T05:07:36.468Z,1027.32
2017-01-17T05:08:41.633Z,1027.35
2017-01-17T05:09:44.860Z,1027.4
2017-01-17T05:10:51.126Z,1027.46
2017-01-17T05:11:57.284Z,1027.48
2017-01-17T05:13:02.481Z,1027.52
2017-01-17T05:14:08.664Z,1027.56
2017-01-17T05:15:11.886Z,1027.52
2017-01-17T05:16:17.096Z,1027.61
2017-01-17T05:17:20.394Z,1027.57
2017-01-17T05:18:25.602Z,1027.61
2017-01-17T05:19:30.760Z,1027.63
2017-01-17T05:20:34.033Z,1027.62
2017-01-17T05:21:40.157Z,1027.65
2017-01-17T05:22:45.346Z,1027.68
2017-01-17T05:23:51.500Z,1027.72
2017-01-17T05:24:57.803Z,1027.72
2017-01-17T05:26:04.086Z,1027.72
2017-01-17T05:27:08.275Z,1027.71
2017-01-17T05:28:14.512Z,1027.69
2017-01-17T05:29:18.736Z,1027.69
2017-01-17T05:30:22.959Z,1027.7
2017-01-17T05:31:29.125Z,1027.73
2017-01-17T05:32:35.345Z,1027.8
2017-01-17T05:33:40.537Z,1027.8
2017-01-17T05:34:46.708Z,1027.82
2017-01-17T05:35:52.860Z,1027.84
2017-01-17T05:36:57.059Z,1027.88
2017-01-17T05:38:03.218Z,1027.93
2017-01-17T05:39:09.379Z,1027.94
2017-01-17T05:40:15.536Z,1027.95
2017-01-17T05:41:20.724Z,1027.95
2017-01-17T05:42:25.946Z,1027.99
2017-01-17T05:43:31.116Z,1028.02
2017-01-17T05:44:36.314Z,1028
2017-01-17T05:45:42.470Z,1028.04
2017-01-17T05:46:46.679Z,1028.07
2017-01-17T05:47:52.825Z,1028.07
2017-01-17T05:48:58.016Z,1028.06
2017-01-17T05:50:02.244Z,1028.06
2017-01-17T05:51:07.576Z,1028.08
2017-01-17T05:52:13.796Z,1028.08
2017-01-17T05:53:19.955Z,1028.1
2017-01-17T05:54:26.112Z,1028.04
2017-01-17T05:55:31.302Z,1028.09
2017-01-17T05:56:36.551Z,1028.09
2017-01-17T05:57:40.772Z,1028.08
2017-01-17T05:58:45.944Z,1028.14
2017-01-17T05:59:51.138Z,1028.11
2017-01-17T06:00:55.370Z,1028.11
2017-01-17T06:02:01.550Z,1028.1
2017-01-17T06:03:06.799Z,1028.04
2017-01-17T06:04:12.959Z,1028.05
2017-01-17T06:05:19.126Z,1028.07
2017-01-17T06:06:25.284Z,1028.05
2017-01-17T06:07:30.446Z,1028.07
2017-01-17T06:08:34.645Z,1028.03
2017-01-17T06:09:39.853Z,1028.06
2017-01-17T06:10:45.098Z,1028.05
2017-01-17T06:11:51.260Z,1028.08
2017-01-17T06:12:56.470Z,1028.09
2017-01-17T06:14:01.635Z,1028.15
2017-01-17T06:15:05.894Z,1028.15
2017-01-17T06:16:12.026Z,1028.19
2017-01-17T06:17:16.249Z,1028.19
2017-01-17T06:18:22.411Z,1028.16
2017-01-17T06:19:26.607Z,1028.19
2017-01-17T06:20:31.803Z,1028.14
2017-01-17T06:21:37.970Z,1028.19
2017-01-17T06:22:44.142Z,1028.18
2017-01-17T06:23:50.307Z,1028.24
2017-01-17T06:24:56.537Z,1028.21
2017-01-17T06:26:01.719Z,1028.25
2017-01-17T06:27:06.918Z,1028.26
2017-01-17T06:28:13.161Z,1028.26
2017-01-17T06:29:18.353Z,1028.26
2017-01-17T06:30:24.515Z,1028.3
2017-01-17T06:31:27.793Z,1028.36
2017-01-17T06:32:32.026Z,1028.32
2017-01-17T06:33:38.183Z,1028.32
2017-01-17T06:34:43.350Z,1028.33
2017-01-17T06:35:46.669Z,1028.3
2017-01-17T06:36:51.868Z,1028.33
2017-01-17T06:37:57.057Z,1028.36
2017-01-17T06:39:01.260Z,1028.33
2017-01-17T06:40:07.419Z,1028.38
2017-01-17T06:41:12.629Z,1028.4
2017-01-17T06:42:18.824Z,1028.44
2017-01-17T06:43:24.955Z,1028.49
2017-01-17T06:44:29.155Z,1028.55
2017-01-17T06:45:35.316Z,1028.51
2017-01-17T06:46:39.594Z,1028.54
2017-01-17T06:47:44.791Z,1028.52
2017-01-17T06:48:50.954Z,1028.55
2017-01-17T06:49:56.132Z,1028.53
2017-01-17T06:51:01.293Z,1028.55
2017-01-17T06:52:07.456Z,1028.53
2017-01-17T06:53:12.707Z,1028.57
2017-01-17T06:54:18.869Z,1028.6
2017-01-17T06:55:23.075Z,1028.65
2017-01-17T06:56:29.250Z,1028.64
2017-01-17T06:57:35.406Z,1028.66
2017-01-17T06:58:40.614Z,1028.69
2017-01-17T06:59:44.935Z,1028.68
2017-01-17T07:00:50.115Z,1028.72
2017-01-17T07:01:56.384Z,1028.73
2017-01-17T07:03:01.587Z,1028.75
2017-01-17T07:04:07.718Z,1028.78
2017-01-17T07:05:11.984Z,1028.8
2017-01-17T07:06:16.227Z,1028.78
2017-01-17T07:07:22.394Z,1028.78
2017-01-17T07:08:28.558Z,1028.8
2017-01-17T07:09:32.786Z,1028.83
2017-01-17T07:10:36.981Z,1028.84
2017-01-17T07:11:42.148Z,1028.89
2017-01-17T07:12:46.387Z,1028.87
2017-01-17T07:13:52.552Z,1028.96
2017-01-17T07:14:57.751Z,1028.99
2017-01-17T07:16:03.923Z,1029.02
2017-01-17T07:17:09.115Z,1029.01
2017-01-17T07:18:15.278Z,1029.02
2017-01-17T07:19:19.778Z,1029.01
2017-01-17T07:20:23.969Z,1028.96
2017-01-17T07:21:28.196Z,1029.02
2017-01-17T07:22:33.394Z,1028.99
2017-01-17T07:23:38.604Z,1028.98
2017-01-17T07:24:44.763Z,1028.98
2017-01-17T07:25:50.927Z,1028.99
2017-01-17T07:26:57.164Z,1029
2017-01-17T07:28:02.360Z,1029.02
2017-01-17T07:29:08.610Z,1028.96
2017-01-17T07:30:13.801Z,1028.97
2017-01-17T07:31:18.971Z,1028.99
2017-01-17T07:32:25.141Z,1029.02
2017-01-17T07:33:31.383Z,1029.03
2017-01-17T07:34:37.548Z,1029.03
2017-01-17T07:35:42.746Z,1029.03
2017-01-17T07:36:48.903Z,1029.04
2017-01-17T07:37:53.131Z,1029.02
2017-01-17T07:38:57.354Z,1029.06
2017-01-17T07:40:02.562Z,1029.06
2017-01-17T07:41:06.753Z,1029.12
2017-01-17T07:42:12.006Z,1029.1
2017-01-17T07:43:17.206Z,1029.17
2017-01-17T07:44:23.368Z,1029.18
2017-01-17T07:45:28.562Z,1029.19
2017-01-17T07:46:34.783Z,1029.21
2017-01-17T07:47:40.068Z,1029.22
2017-01-17T07:48:45.262Z,1029.26
2017-01-17T07:49:50.459Z,1029.27
2017-01-17T07:50:55.656Z,1029.35
2017-01-17T07:51:59.884Z,1029.3
2017-01-17T07:53:05.088Z,1029.32
2017-01-17T07:54:10.307Z,1029.33
2017-01-17T07:55:15.504Z,1029.37
2017-01-17T07:56:20.730Z,1029.3
2017-01-17T07:57:26.923Z,1029.33
2017-01-17T07:58:31.096Z,1029.36
2017-01-17T07:59:37.256Z,1029.32
2017-01-17T08:00:43.495Z,1029.34
2017-01-17T08:01:47.726Z,1029.33
2017-01-17T08:02:54.010Z,1029.33
2017-01-17T08:03:59.179Z,1029.29
2017-01-17T08:05:04.383Z,1029.31
2017-01-17T08:06:09.582Z,1029.27
2017-01-17T08:07:14.750Z,1029.26
2017-01-17T08:08:20.910Z,1029.24
2017-01-17T08:09:26.108Z,1029.28
2017-01-17T08:10:30.366Z,1029.26
2017-01-17T08:11:35.565Z,1029.33
2017-01-17T08:12:41.029Z,1029.33
2017-01-17T08:13:46.617Z,1029.3
2017-01-17T08:14:52.500Z,1029.34
2017-01-17T08:15:59.052Z,1029.34
2017-01-17T08:17:04.944Z,1029.36
2017-01-17T08:18:09.575Z,1029.32
2017-01-17T08:19:15.169Z,1029.32
2017-01-17T08:20:20.687Z,1029.32
2017-01-17T08:21:27.060Z,1029.31
2017-01-17T08:22:32.349Z,1029.34
2017-01-17T08:23:36.673Z,1029.29
2017-01-17T08:24:40.902Z,1029.34
2017-01-17T08:25:46.093Z,1029.36
2017-01-17T08:26:51.293Z,1029.31
2017-01-17T08:27:57.429Z,1029.32
2017-01-17T08:29:03.583Z,1029.32
2017-01-17T08:30:08.878Z,1029.32
2017-01-17T08:31:15.050Z,1029.32
2017-01-17T08:32:19.245Z,1029.31
2017-01-17T08:33:24.511Z,1029.29
2017-01-17T08:34:29.791Z,1029.29
2017-01-17T08:35:36.004Z,1029.34
2017-01-17T08:36:40.237Z,1029.32
2017-01-17T08:37:45.396Z,1029.37
2017-01-17T08:38:51.559Z,1029.34
2017-01-17T08:39:55.785Z,1029.39
2017-01-17T08:41:01.944Z,1029.36
2017-01-17T08:42:07.194Z,1029.38
2017-01-17T08:43:11.391Z,1029.4
2017-01-17T08:44:15.594Z,1029.39
2017-01-17T08:45:19.787Z,1029.41
2017-01-17T08:46:25.959Z,1029.41
2017-01-17T08:47:32.139Z,1029.46
2017-01-17T08:48:37.328Z,1029.44
2017-01-17T08:49:42.574Z,1029.47
2017-01-17T08:50:46.781Z,1029.49
2017-01-17T08:51:52.924Z,1029.5
2017-01-17T08:52:58.113Z,1029.52
2017-01-17T08:54:03.295Z,1029.51
2017-01-17T08:55:06.563Z,1029.56
2017-01-17T08:56:11.728Z,1029.57
2017-01-17T08:57:14.956Z,1029.59
2017-01-17T08:58:20.176Z,1029.65
2017-01-17T08:59:25.369Z,1029.65
2017-01-17T09:00:31.539Z,1029.71
2017-01-17T09:01:35.767Z,1029.76
2017-01-17T09:02:41.923Z,1029.76
2017-01-17T09:03:47.122Z,1029.75
2017-01-17T09:04:52.984Z,1029.78
2017-01-17T09:05:58.223Z,1029.81
2017-01-17T09:07:04.349Z,1029.79
2017-01-17T09:08:10.519Z,1029.81
2017-01-17T09:09:15.681Z,1029.84
2017-01-17T09:10:20.885Z,1029.84
2017-01-17T09:11:27.095Z,1029.84
2017-01-17T09:12:32.245Z,1029.85
2017-01-17T09:13:37.435Z,1029.89
2017-01-17T09:14:42.725Z,1029.9
2017-01-17T09:15:48.892Z,1029.9
2017-01-17T09:16:54.223Z,1029.9
2017-01-17T09:18:00.353Z,1029.91
2017-01-17T09:19:06.529Z,1029.95
2017-01-17T09:20:12.716Z,1029.91
2017-01-17T09:21:17.860Z,1029.94
2017-01-17T09:22:24.015Z,1029.93
2017-01-17T09:23:29.209Z,1029.93
2017-01-17T09:24:35.368Z,1029.97
2017-01-17T09:26:43.794Z,1029.96
2017-01-17T09:27:50.008Z,1029.99
2017-01-17T09:28:56.189Z,1029.98
2017-01-17T09:30:00.415Z,1029.96
2017-01-17T09:31:06.582Z,1029.99
2017-01-17T09:32:12.750Z,1029.99
2017-01-17T09:33:18.030Z,1030
2017-01-17T09:34:22.260Z,1030.02
2017-01-17T09:35:28.420Z,1030.06
2017-01-17T09:36:34.586Z,1030.01
2017-01-17T09:37:39.758Z,1030.06
2017-01-17T09:38:45.917Z,1030.02
2017-01-17T09:39:50.146Z,1030.02
2017-01-17T09:40:55.361Z,1030.03
2017-01-17T09:42:01.531Z,1030.05
2017-01-17T09:43:05.723Z,1030.04
2017-01-17T09:44:07.993Z,1030.06
2017-01-17T09:45:12.201Z,1030.08
2017-01-17T09:46:17.387Z,1030.06
2017-01-17T09:47:22.598Z,1030.09
2017-01-17T09:48:27.777Z,1030.13
2017-01-17T09:49:32.951Z,1030.08
2017-01-17T09:50:39.108Z,1030.11
2017-01-17T09:51:43.307Z,1030.09
2017-01-17T09:52:48.518Z,1030.09
2017-01-17T09:53:53.715Z,1030.11
2017-01-17T09:54:58.910Z,1030.06
2017-01-17T09:56:05.121Z,1030.11
2017-01-17T09:57:11.238Z,1030.12
2017-01-17T09:58:17.409Z,1030.09
2017-01-17T09:59:23.571Z,1030.06
2017-01-17T10:00:28.742Z,1030.09
2017-01-17T10:01:33.936Z,1030.06
2017-01-17T10:02:38.174Z,1030.07
2017-01-17T10:03:44.333Z,1030.08
2017-01-17T10:04:49.526Z,1030.1
2017-01-17T10:05:55.696Z,1030.1
2017-01-17T10:07:00.894Z,1030.12
2017-01-17T10:08:04.129Z,1030.16
2017-01-17T10:09:09.343Z,1030.1
2017-01-17T10:10:15.509Z,1030.14
2017-01-17T10:11:20.766Z,1030.16
2017-01-17T10:12:25.951Z,1030.17
2017-01-17T10:13:31.147Z,1030.19
2017-01-17T10:14:37.309Z,1030.21
2017-01-17T10:15:42.504Z,1030.25
2017-01-17T10:16:47.698Z,1030.28
2017-01-17T10:17:51.893Z,1030.32
2017-01-17T10:18:56.141Z,1030.29
2017-01-17T10:20:02.312Z,1030.29
2017-01-17T10:21:07.507Z,1030.33
2017-01-17T10:22:13.665Z,1030.33
2017-01-17T10:23:18.867Z,1030.37
2017-01-17T10:24:25.029Z,1030.39
2017-01-17T10:25:31.191Z,1030.37
2017-01-17T10:26:35.427Z,1030.37
2017-01-17T10:27:39.624Z,1030.41
2017-01-17T10:28:43.825Z,1030.38
2017-01-17T10:29:49.989Z,1030.4
2017-01-17T10:30:55.194Z,1030.4
2017-01-17T10:32:01.359Z,1030.46
2017-01-17T10:33:06.639Z,1030.47
2017-01-17T10:34:12.797Z,1030.43
2017-01-17T10:35:17.039Z,1030.48
2017-01-17T10:36:21.250Z,1030.45
2017-01-17T10:37:25.483Z,1030.45
2017-01-17T10:38:31.668Z,1030.46
2017-01-17T10:39:37.824Z,1030.52
2017-01-17T10:40:42.988Z,1030.49
2017-01-17T10:41:49.266Z,1030.52
2017-01-17T10:42:55.449Z,1030.55
2017-01-17T10:43:59.651Z,1030.54
2017-01-17T10:45:05.846Z,1030.55
2017-01-17T10:46:12.015Z,1030.53
2017-01-17T10:47:18.223Z,1030.53
2017-01-17T10:48:24.353Z,1030.5
2017-01-17T10:49:30.515Z,1030.52
2017-01-17T10:50:34.727Z,1030.51
2017-01-17T10:51:39.922Z,1030.52
2017-01-17T10:52:46.084Z,1030.54
2017-01-17T10:53:50.311Z,1030.55
2017-01-17T10:54:55.481Z,1030.49
2017-01-17T10:56:00.677Z,1030.49
2017-01-17T10:57:05.896Z,1030.47
2017-01-17T10:58:11.078Z,1030.44
2017-01-17T10:59:16.350Z,1030.46
2017-01-17T11:00:19.575Z,1030.47
2017-01-17T11:01:25.739Z,1030.46
2017-01-17T11:02:30.920Z,1030.46
2017-01-17T11:03:35.153Z,1030.46
2017-01-17T11:04:41.315Z,1030.51
2017-01-17T11:05:45.545Z,1030.52
2017-01-17T11:06:50.742Z,1030.55
2017-01-17T11:07:56.912Z,1030.55
2017-01-17T11:09:02.124Z,1030.54
2017-01-17T11:10:06.367Z,1030.53
2017-01-17T11:11:12.530Z,1030.48
2017-01-17T11:12:17.722Z,1030.48
2017-01-17T11:13:22.913Z,1030.48
2017-01-17T11:14:29.094Z,1030.46
2017-01-17T11:15:34.272Z,1030.45
2017-01-17T11:16:40.440Z,1030.45
2017-01-17T11:17:46.616Z,1030.43
2017-01-17T11:18:51.810Z,1030.46
2017-01-17T11:19:57.006Z,1030.48
2017-01-17T11:21:02.201Z,1030.44
2017-01-17T11:22:07.416Z,1030.49
2017-01-17T11:23:13.592Z,1030.5
2017-01-17T11:24:18.843Z,1030.49
2017-01-17T11:25:23.981Z,1030.56
2017-01-17T11:26:30.198Z,1030.61
2017-01-17T11:27:35.395Z,1030.58
2017-01-17T11:28:39.626Z,1030.6
2017-01-17T11:29:42.857Z,1030.58
2017-01-17T11:30:48.047Z,1030.57
2017-01-17T11:31:54.212Z,1030.59
2017-01-17T11:32:58.456Z,1030.58
2017-01-17T11:34:02.698Z,1030.58
2017-01-17T11:35:07.906Z,1030.56
2017-01-17T11:36:13.075Z,1030.54
2017-01-17T11:37:16.356Z,1030.54
2017-01-17T11:38:22.507Z,1030.55
2017-01-17T11:39:28.675Z,1030.61
2017-01-17T11:40:34.830Z,1030.64
2017-01-17T11:41:40.137Z,1030.72
2017-01-17T11:42:46.308Z,1030.69
2017-01-17T11:43:52.530Z,1030.66
2017-01-17T11:44:58.666Z,1030.6
2017-01-17T11:46:02.896Z,1030.65
2017-01-17T11:47:08.123Z,1030.66
2017-01-17T11:48:14.288Z,1030.67
2017-01-17T11:49:18.515Z,1030.66
2017-01-17T11:50:22.816Z,1030.64
2017-01-17T11:51:28.989Z,1030.68
2017-01-17T11:52:33.211Z,1030.69
2017-01-17T11:53:37.421Z,1030.65
2017-01-17T11:54:43.589Z,1030.63
2017-01-17T11:55:47.820Z,1030.63
2017-01-17T11:56:53.034Z,1030.67
2017-01-17T11:57:59.158Z,1030.68
2017-01-17T11:59:01.445Z,1030.69
2017-01-17T12:00:06.625Z,1030.72
2017-01-17T12:01:11.816Z,1030.7
2017-01-17T12:02:17.014Z,1030.64
2017-01-17T12:03:23.173Z,1030.63
2017-01-17T12:04:27.393Z,1030.6
2017-01-17T12:05:33.600Z,1030.54
2017-01-17T12:06:39.745Z,1030.52
2017-01-17T12:07:44.941Z,1030.53
2017-01-17T12:08:50.137Z,1030.57
2017-01-17T12:09:55.329Z,1030.57
2017-01-17T12:11:00.527Z,1030.57
2017-01-17T12:12:05.695Z,1030.49
2017-01-17T12:13:09.946Z,1030.5
2017-01-17T12:14:16.272Z,1030.48
2017-01-17T12:15:20.581Z,1030.47
2017-01-17T12:16:25.777Z,1030.43
2017-01-17T12:17:31.943Z,1030.44
2017-01-17T12:18:36.172Z,1030.37
2017-01-17T12:19:41.436Z,1030.39
2017-01-17T12:20:45.636Z,1030.42
2017-01-17T12:21:49.877Z,1030.41
2017-01-17T12:22:55.076Z,1030.41
2017-01-17T12:23:59.308Z,1030.45
2017-01-17T12:25:03.541Z,1030.48
2017-01-17T12:26:08.733Z,1030.5
2017-01-17T12:27:14.912Z,1030.52
2017-01-17T12:28:21.072Z,1030.49
2017-01-17T12:29:26.250Z,1030.48
2017-01-17T12:30:31.447Z,1030.49
2017-01-17T12:31:37.611Z,1030.54
2017-01-17T12:32:42.808Z,1030.52
2017-01-17T12:33:47.979Z,1030.47
2017-01-17T12:34:51.233Z,1030.48
2017-01-17T12:35:56.438Z,1030.46
2017-01-17T12:37:02.592Z,1030.48
2017-01-17T12:38:07.785Z,1030.46
2017-01-17T12:39:13.945Z,1030.5
2017-01-17T12:40:20.245Z,1030.5
2017-01-17T12:41:24.413Z,1030.43
2017-01-17T12:42:29.610Z,1030.45
2017-01-17T12:43:33.842Z,1030.4
2017-01-17T12:44:40.010Z,1030.39
2017-01-17T12:45:46.172Z,1030.35
2017-01-17T12:46:52.344Z,1030.33
2017-01-17T12:47:57.527Z,1030.36
2017-01-17T12:49:02.784Z,1030.41
2017-01-17T12:50:07.980Z,1030.36
2017-01-17T12:51:13.179Z,1030.43
2017-01-17T12:52:19.416Z,1030.39
2017-01-17T12:53:24.607Z,1030.45
2017-01-17T12:54:30.782Z,1030.49
2017-01-17T12:55:35.974Z,1030.48
2017-01-17T12:56:42.167Z,1030.47
2017-01-17T12:57:48.297Z,1030.44
2017-01-17T12:58:52.528Z,1030.49
2017-01-17T12:59:58.790Z,1030.48
2017-01-17T13:01:03.021Z,1030.48
2017-01-17T13:02:08.221Z,1030.45
2017-01-17T13:03:13.418Z,1030.45
2017-01-17T13:04:19.581Z,1030.4
2017-01-17T13:05:25.757Z,1030.43
2017-01-17T13:06:31.968Z,1030.46
2017-01-17T13:07:36.599Z,1030.43
2017-01-17T13:08:41.787Z,1030.42
2017-01-17T13:09:47.021Z,1030.4
2017-01-17T13:10:53.157Z,1030.43
2017-01-17T13:11:59.321Z,1030.44
2017-01-17T13:13:03.522Z,1030.43
2017-01-17T13:14:08.759Z,1030.42
2017-01-17T13:15:13.927Z,1030.41